Time;durP1;ratioP1;P1;durP2;ratioP2;P2;SDS_P1;SDS_P2;PMS_P1;PMS_P2;Temp;Humidity;BMP_temperature;BMP_pressure;BME280_temperature;BME280_humidity;BME280_pressure;Samples;Min_cycle;Max_cycle;Signal;HPM_P1;HPM_P2
2021/01/18 00:00:06;;;;;;;11.67;10.50;;;2.90;42.70;;;;;;10381925;28;20309;-69
2021/01/18 00:05:10;;;;;;;12.17;10.93;;;3.00;43.50;;;;;;10400943;28;20232;-68
2021/01/18 00:10:17;;;;;;;11.63;10.30;;;3.10;43.40;;;;;;10402125;28;20787;-68
2021/01/18 00:15:22;;;;;;;10.90;9.80;;;3.20;43.80;;;;;;10391822;28;20238;-68
2021/01/18 00:20:25;;;;;;;11.70;10.50;;;3.30;43.60;;;;;;10395771;28;20248;-68
2021/01/18 00:25:27;;;;;;;11.10;9.90;;;3.40;43.50;;;;;;10400637;28;20231;-68
2021/01/18 00:30:30;;;;;;;11.57;10.10;;;3.40;43.30;;;;;;10395715;28;20697;-68
2021/01/18 00:35:33;;;;;;;10.73;9.53;;;3.50;43.70;;;;;;10399162;28;20225;-68
2021/01/18 00:40:35;;;;;;;10.07;9.00;;;3.60;43.60;;;;;;10396196;28;20228;-68
2021/01/18 00:45:38;;;;;;;10.57;9.17;;;3.70;43.70;;;;;;10365940;28;20222;-68
2021/01/18 00:50:40;;;;;;;9.33;8.43;;;3.70;43.80;;;;;;10365973;28;20217;-68
2021/01/18 00:55:42;;;;;;;8.83;8.03;;;3.80;43.70;;;;;;10365331;28;20600;-68
2021/01/18 01:00:45;;;;;;;8.70;7.90;;;3.90;43.80;;;;;;10365638;28;20231;-68
2021/01/18 01:05:48;;;;;;;8.57;7.67;;;4.00;43.80;;;;;;10366293;28;20234;-68
2021/01/18 01:10:59;;;;;;;8.87;8.07;;;4.00;43.80;;;;;;10365611;28;20238;-68
2021/01/18 01:16:03;;;;;;;8.50;7.73;;;4.10;43.90;;;;;;10366877;28;20227;-68
2021/01/18 01:21:06;;;;;;;8.70;7.90;;;4.10;44.20;;;;;;10366826;28;20724;-68
2021/01/18 01:26:08;;;;;;;9.07;8.17;;;4.10;44.10;;;;;;10367715;28;20256;-68
2021/01/18 01:31:12;;;;;;;8.13;7.30;;;4.20;44.10;;;;;;10366869;28;20316;-71
2021/01/18 01:36:14;;;;;;;8.47;7.67;;;4.20;44.20;;;;;;10364296;28;20639;-72
2021/01/18 01:41:16;;;;;;;8.10;7.33;;;4.30;44.10;;;;;;10365611;28;20222;-71
2021/01/18 01:46:20;;;;;;;7.80;7.07;;;4.40;44.30;;;;;;10363132;28;20317;-71
2021/01/18 01:51:24;;;;;;;7.27;6.67;;;4.40;44.30;;;;;;10367799;28;20238;-71
2021/01/18 01:56:27;;;;;;;7.27;6.67;;;4.50;44.30;;;;;;10360562;28;20234;-72
2021/01/18 02:01:30;;;;;;;7.07;6.47;;;4.50;44.10;;;;;;10365626;28;20233;-72
2021/01/18 02:06:33;;;;;;;6.67;6.03;;;4.50;44.20;;;;;;10365030;28;20230;-72
2021/01/18 02:11:35;;;;;;;6.90;6.30;;;4.60;44.00;;;;;;10370901;28;20273;-72
2021/01/18 02:16:47;;;;;;;6.87;6.17;;;4.60;44.00;;;;;;10364942;28;20222;-72
2021/01/18 02:22:37;;;;;;;7.93;7.13;;;4.60;44.60;;;;;;10367556;28;20231;-72
2021/01/18 02:28:07;;;;;;;6.67;6.07;;;4.70;45.10;;;;;;10331083;28;20222;-72
2021/01/18 02:33:35;;;;;;;6.83;6.23;;;4.60;44.90;;;;;;10358990;28;20737;-72
2021/01/18 02:38:52;;;;;;;6.73;6.13;;;4.70;44.80;;;;;;10361945;28;20226;-71
2021/01/18 02:44:05;;;;;;;6.90;6.23;;;4.70;44.50;;;;;;10359671;28;20226;-72
2021/01/18 02:49:07;;;;;;;6.90;6.30;;;4.80;44.40;;;;;;10360560;28;20227;-71
2021/01/18 02:54:10;;;;;;;7.87;7.07;;;4.80;44.40;;;;;;10364014;28;20264;-71
2021/01/18 02:59:13;;;;;;;7.77;6.97;;;4.80;44.50;;;;;;10364295;28;20222;-71
2021/01/18 03:04:23;;;;;;;7.30;6.60;;;4.80;44.30;;;;;;10361029;28;20226;-71
2021/01/18 03:09:35;;;;;;;8.17;7.47;;;4.90;44.80;;;;;;10360942;28;20249;-72
2021/01/18 03:14:43;;;;;;;8.50;7.60;;;4.90;45.00;;;;;;10360444;28;20702;-72
2021/01/18 03:19:45;;;;;;;8.70;7.80;;;4.90;44.80;;;;;;10365352;28;20233;-72
2021/01/18 03:24:49;;;;;;;9.00;8.20;;;4.90;44.60;;;;;;10362564;28;20230;-72
2021/01/18 03:29:51;;;;;;;9.47;8.57;;;4.90;44.70;;;;;;10363619;28;20229;-72
2021/01/18 03:34:53;;;;;;;9.37;8.17;;;4.90;44.60;;;;;;10364500;28;20245;-72
2021/01/18 03:39:56;;;;;;;9.20;8.30;;;5.00;44.70;;;;;;10359167;28;20776;-72
2021/01/18 03:44:58;;;;;;;8.03;6.50;;;5.00;44.70;;;;;;10359730;28;20338;-72
2021/01/18 03:50:01;;;;;;;8.87;7.97;;;5.10;44.50;;;;;;10361900;28;20227;-72
2021/01/18 03:55:04;;;;;;;7.50;6.80;;;5.10;44.60;;;;;;10363848;28;20340;-71
2021/01/18 04:00:08;;;;;;;8.40;7.50;;;5.10;44.70;;;;;;10361663;28;20309;-71
2021/01/18 04:05:11;;;;;;;8.03;7.20;;;5.20;44.70;;;;;;10364181;28;20265;-72
2021/01/18 04:10:15;;;;;;;8.00;7.20;;;5.20;44.70;;;;;;10364092;28;20752;-71
2021/01/18 04:15:20;;;;;;;8.20;6.77;;;5.20;44.80;;;;;;10354487;28;20589;-71
2021/01/18 04:20:23;;;;;;;7.17;6.57;;;5.20;44.70;;;;;;10371465;28;20276;-72
2021/01/18 04:25:28;;;;;;;6.97;6.27;;;5.20;44.60;;;;;;10370825;28;20691;-72
2021/01/18 04:30:32;;;;;;;7.10;6.33;;;5.20;44.60;;;;;;10372598;28;20230;-72
2021/01/18 04:35:35;;;;;;;6.73;6.13;;;5.20;44.70;;;;;;10367086;28;20245;-71
2021/01/18 04:40:39;;;;;;;6.77;6.13;;;5.20;44.70;;;;;;10367703;28;20308;-72
2021/01/18 04:45:45;;;;;;;6.10;5.60;;;5.20;44.80;;;;;;10368330;28;20237;-72
2021/01/18 04:50:48;;;;;;;6.53;5.93;;;5.30;44.70;;;;;;10367798;28;20232;-72
2021/01/18 04:56:03;;;;;;;6.60;6.03;;;5.20;44.70;;;;;;10367157;28;20241;-72
2021/01/18 05:01:05;;;;;;;6.17;5.57;;;5.20;45.20;;;;;;10394215;28;20253;-71
2021/01/18 05:06:41;;;;;;;5.80;5.20;;;5.30;44.80;;;;;;10408516;28;20232;-72
2021/01/18 05:11:47;;;;;;;6.17;5.60;;;5.30;45.50;;;;;;10406823;28;20312;-72
2021/01/18 05:16:57;;;;;;;6.30;5.47;;;5.30;45.00;;;;;;10405047;28;20233;-72
2021/01/18 05:22:00;;;;;;;6.00;5.40;;;5.30;45.10;;;;;;10407764;28;20241;-72
2021/01/18 05:27:05;;;;;;;6.77;6.00;;;5.40;44.70;;;;;;10404245;28;20244;-71
2021/01/18 05:32:21;;;;;;;6.43;5.83;;;5.40;44.90;;;;;;10406079;28;20230;-72
2021/01/18 05:37:26;;;;;;;6.13;5.60;;;5.30;45.00;;;;;;10404153;28;20287;-72
2021/01/18 05:42:29;;;;;;;6.80;6.10;;;5.30;44.60;;;;;;10400078;28;20616;-72
2021/01/18 05:47:34;;;;;;;6.40;5.80;;;5.30;44.80;;;;;;10403371;28;20742;-72
2021/01/18 05:52:36;;;;;;;5.93;5.33;;;5.30;44.70;;;;;;10406553;28;20288;-72
2021/01/18 05:57:43;;;;;;;6.07;5.50;;;5.30;44.70;;;;;;10407894;28;20236;-72
2021/01/18 06:02:48;;;;;;;6.87;6.17;;;5.40;45.00;;;;;;10405294;28;20228;-72
2021/01/18 06:07:50;;;;;;;6.37;5.83;;;5.40;45.10;;;;;;10407114;28;20217;-72
2021/01/18 06:12:53;;;;;;;7.30;5.80;;;5.40;45.00;;;;;;10402761;28;20312;-72
2021/01/18 06:17:57;;;;;;;6.07;5.53;;;5.40;45.00;;;;;;10400109;28;20236;-72
2021/01/18 06:23:00;;;;;;;5.47;4.97;;;5.40;45.00;;;;;;10406511;28;20291;-72
2021/01/18 06:28:04;;;;;;;5.40;4.90;;;5.40;44.90;;;;;;10405427;28;20239;-71
2021/01/18 06:33:12;;;;;;;5.77;5.27;;;5.40;45.00;;;;;;10405809;28;20353;-72
2021/01/18 06:38:21;;;;;;;5.63;5.13;;;5.40;45.40;;;;;;10399823;28;20232;-71
2021/01/18 06:43:24;;;;;;;5.87;5.37;;;5.40;45.40;;;;;;10384001;28;623139;-72
2021/01/18 06:48:27;;;;;;;6.00;5.43;;;5.50;45.00;;;;;;10405556;28;20229;-72
2021/01/18 06:53:40;;;;;;;6.23;5.63;;;5.40;45.00;;;;;;10407037;28;20234;-72
2021/01/18 06:58:55;;;;;;;5.83;5.33;;;5.40;45.20;;;;;;10405497;28;20241;-73
2021/01/18 07:04:06;;;;;;;6.20;5.60;;;5.40;45.50;;;;;;10403494;28;20237;-72
2021/01/18 07:09:10;;;;;;;6.00;5.47;;;5.40;45.50;;;;;;10373687;28;20706;-72
2021/01/18 07:14:31;;;;;;;5.57;5.10;;;5.50;45.00;;;;;;10404926;28;20295;-72
2021/01/18 07:19:37;;;;;;;6.17;5.50;;;5.50;45.20;;;;;;10406363;28;20245;-72
2021/01/18 07:25:02;;;;;;;6.63;6.03;;;5.40;45.10;;;;;;10403636;28;20228;-72
2021/01/18 07:30:07;;;;;;;5.60;5.17;;;5.40;44.90;;;;;;10407016;22;20225;-73
2021/01/18 07:35:11;;;;;;;6.00;5.50;;;5.40;45.00;;;;;;10473762;28;20233;-72
2021/01/18 07:40:17;;;;;;;6.63;6.03;;;5.40;45.00;;;;;;10440960;28;20748;-73
2021/01/18 07:45:24;;;;;;;5.87;5.37;;;5.40;45.00;;;;;;10439304;28;20328;-72
2021/01/18 07:50:27;;;;;;;6.40;5.90;;;5.40;45.40;;;;;;10441304;28;20748;-75
2021/01/18 07:55:29;;;;;;;5.67;5.17;;;5.40;45.00;;;;;;10444778;28;20235;-76
2021/01/18 08:00:33;;;;;;;6.33;5.73;;;5.40;44.90;;;;;;10446902;28;20296;-74
2021/01/18 08:05:37;;;;;;;5.80;5.30;;;5.40;45.20;;;;;;10445790;28;20256;-74
2021/01/18 08:10:54;;;;;;;5.83;5.30;;;5.40;45.10;;;;;;10448928;28;20248;-73
2021/01/18 08:16:09;;;;;;;5.80;5.27;;;5.40;45.80;;;;;;10440251;28;20335;-74
2021/01/18 08:21:47;;;;;;;5.40;4.90;;;5.40;45.10;;;;;;10437249;28;20729;-74
2021/01/18 08:26:55;;;;;;;8.87;7.97;;;5.40;45.60;;;;;;10444648;28;20252;-74
2021/01/18 08:32:37;;;;;;;7.33;6.70;;;5.40;45.20;;;;;;10439286;28;20263;-76
2021/01/18 08:37:50;;;;;;;7.00;6.40;;;5.40;45.80;;;;;;10439094;28;20763;-77
2021/01/18 08:42:55;;;;;;;7.30;6.60;;;5.40;45.20;;;;;;10440674;28;20225;-75
2021/01/18 08:47:59;;;;;;;5.03;4.53;;;5.50;45.20;;;;;;10442688;28;20236;-76
2021/01/18 08:53:03;;;;;;;5.33;4.57;;;5.50;45.20;;;;;;10433584;28;20260;-75
2021/01/18 08:58:07;;;;;;;4.67;4.27;;;5.50;45.10;;;;;;10436564;28;20226;-77
2021/01/18 09:03:11;;;;;;;6.90;5.07;;;5.50;45.10;;;;;;10440969;28;20221;-77
2021/01/18 09:08:16;;;;;;;4.53;4.13;;;5.50;45.20;;;;;;10449948;28;20910;-74
2021/01/18 09:13:21;;;;;;;4.30;3.93;;;5.50;45.20;;;;;;10448862;28;20235;-75
2021/01/18 09:18:26;;;;;;;4.43;4.03;;;5.50;45.30;;;;;;10449292;28;20231;-75
2021/01/18 09:23:28;;;;;;;4.23;3.93;;;5.60;45.40;;;;;;10449995;28;20304;-75
2021/01/18 09:28:31;;;;;;;4.27;3.93;;;5.60;45.10;;;;;;10445207;28;20743;-75
2021/01/18 09:33:35;;;;;;;4.27;3.90;;;5.60;45.20;;;;;;10441858;28;20229;-74
2021/01/18 09:38:38;;;;;;;4.67;4.27;;;5.70;45.10;;;;;;10443645;28;20302;-75
2021/01/18 09:43:42;;;;;;;4.17;3.77;;;5.70;45.10;;;;;;10437658;28;20756;-74
2021/01/18 09:48:50;;;;;;;4.23;3.87;;;5.70;45.00;;;;;;10446262;28;20315;-75
2021/01/18 09:53:56;;;;;;;4.50;4.10;;;5.60;45.40;;;;;;10443412;28;20239;-74
2021/01/18 09:59:06;;;;;;;4.50;4.10;;;5.60;45.20;;;;;;10439762;28;20232;-74
2021/01/18 10:04:21;;;;;;;4.77;4.37;;;5.60;45.30;;;;;;10442617;28;20240;-74
2021/01/18 10:09:24;;;;;;;4.63;4.23;;;5.60;45.20;;;;;;10442433;28;20225;-74
2021/01/18 10:14:28;;;;;;;5.03;4.60;;;5.60;45.00;;;;;;10444162;28;20225;-77
2021/01/18 10:19:32;;;;;;;5.47;4.73;;;5.60;45.10;;;;;;10450191;28;20224;-75
2021/01/18 10:24:35;;;;;;;4.93;4.43;;;5.60;45.20;;;;;;10445001;28;20232;-74
2021/01/18 10:29:38;;;;;;;5.47;4.97;;;5.60;45.20;;;;;;10448490;28;20604;-74
2021/01/18 10:34:41;;;;;;;5.33;4.80;;;5.70;45.20;;;;;;10442934;28;20231;-73
2021/01/18 10:40:04;;;;;;;5.77;5.27;;;5.70;45.10;;;;;;10442988;28;20232;-73
2021/01/18 10:45:08;;;;;;;5.13;4.63;;;5.70;45.30;;;;;;10452635;28;20228;-75
2021/01/18 10:50:13;;;;;;;6.60;5.53;;;5.70;45.00;;;;;;10453572;28;20309;-75
2021/01/18 10:55:17;;;;;;;5.77;5.07;;;5.70;45.30;;;;;;10453040;28;20255;-76
2021/01/18 11:00:26;;;;;;;5.87;5.03;;;5.70;45.00;;;;;;10446300;28;20231;-75
2021/01/18 11:05:34;;;;;;;6.80;5.43;;;5.70;45.00;;;;;;10442373;28;20744;-75
2021/01/18 11:10:38;;;;;;;5.77;5.03;;;5.70;45.10;;;;;;10446173;28;20328;-75
2021/01/18 11:15:53;;;;;;;6.60;5.90;;;5.80;45.20;;;;;;10434708;28;20224;-76
2021/01/18 11:20:57;;;;;;;5.53;5.03;;;5.80;45.10;;;;;;10442667;28;20248;-75
2021/01/18 11:26:00;;;;;;;6.63;4.73;;;5.80;45.20;;;;;;10445653;28;20236;-75
2021/01/18 11:31:05;;;;;;;4.93;4.50;;;5.80;45.20;;;;;;10441465;28;20686;-76
2021/01/18 11:36:08;;;;;;;5.57;5.07;;;5.80;45.10;;;;;;10444885;28;20232;-76
2021/01/18 11:41:11;;;;;;;5.13;4.63;;;5.80;45.10;;;;;;10441313;28;20221;-74
2021/01/18 11:46:16;;;;;;;6.93;5.07;;;5.90;45.00;;;;;;10444294;28;20275;-75
2021/01/18 11:51:20;;;;;;;6.50;5.80;;;5.90;45.10;;;;;;10447298;28;20809;-74
2021/01/18 11:56:29;;;;;;;6.07;5.43;;;6.00;45.00;;;;;;10444399;28;20224;-75
2021/01/18 12:01:31;;;;;;;5.33;4.73;;;6.00;45.00;;;;;;10449345;28;20782;-76
2021/01/18 12:06:34;;;;;;;5.97;5.17;;;6.00;44.70;;;;;;10448020;28;20323;-73
2021/01/18 12:11:37;;;;;;;5.47;5.07;;;6.00;44.70;;;;;;10440524;28;20250;-73
2021/01/18 12:16:39;;;;;;;6.40;5.23;;;6.00;44.70;;;;;;10439443;28;20316;-74
2021/01/18 12:21:44;;;;;;;6.23;4.93;;;6.00;44.70;;;;;;10445961;28;20600;-73
2021/01/18 12:26:50;;;;;;;5.20;4.50;;;6.10;44.80;;;;;;10442495;28;20232;-74
2021/01/18 12:31:52;;;;;;;6.20;4.97;;;6.10;44.80;;;;;;10448751;28;20315;-73
2021/01/18 12:36:56;;;;;;;7.37;6.03;;;6.10;44.50;;;;;;10447767;28;20252;-74
2021/01/18 12:41:58;;;;;;;5.93;5.33;;;6.10;44.50;;;;;;10444984;28;20315;-74
2021/01/18 12:47:01;;;;;;;5.27;4.77;;;6.00;44.60;;;;;;10473209;22;20308;-70
2021/01/18 12:52:05;;;;;;;9.70;7.53;;;6.10;44.70;;;;;;10482640;28;20594;-70
2021/01/18 12:57:07;;;;;;;5.20;4.70;;;6.10;44.60;;;;;;10483447;28;20228;-70
2021/01/18 13:02:11;;;;;;;6.13;4.50;;;6.10;44.60;;;;;;10490481;28;20228;-70
2021/01/18 13:07:15;;;;;;;6.60;5.00;;;6.10;44.40;;;;;;10482074;28;20557;-70
2021/01/18 13:12:17;;;;;;;6.17;5.03;;;6.10;44.50;;;;;;10487771;28;20307;-71
2021/01/18 13:17:19;;;;;;;6.63;4.57;;;6.10;44.40;;;;;;10482363;28;20220;-70
2021/01/18 13:22:23;;;;;;;6.03;4.77;;;6.20;44.50;;;;;;10480723;28;20236;-70
2021/01/18 13:27:25;;;;;;;7.93;5.23;;;6.20;44.60;;;;;;10482927;28;20592;-70
2021/01/18 13:32:27;;;;;;;5.70;4.13;;;6.20;44.40;;;;;;10478995;28;20235;-70
2021/01/18 13:37:30;;;;;;;5.10;4.37;;;6.20;44.50;;;;;;10478289;28;20716;-70
2021/01/18 13:42:33;;;;;;;6.53;5.40;;;6.20;44.30;;;;;;10475949;28;20232;-70
2021/01/18 13:47:35;;;;;;;5.90;5.27;;;6.20;44.20;;;;;;10484597;28;20220;-70
2021/01/18 13:52:38;;;;;;;5.77;4.77;;;6.20;44.30;;;;;;10483745;28;20224;-70
2021/01/18 13:57:40;;;;;;;6.97;5.23;;;6.20;44.20;;;;;;10486169;28;20318;-71
2021/01/18 14:02:43;;;;;;;9.53;6.50;;;6.20;44.20;;;;;;10476811;28;20228;-70
2021/01/18 14:07:46;;;;;;;5.03;4.53;;;6.20;44.20;;;;;;10480946;28;20274;-71
2021/01/18 14:12:49;;;;;;;6.57;5.23;;;6.20;44.20;;;;;;10482387;28;20251;-71
2021/01/18 14:17:51;;;;;;;6.97;6.00;;;6.20;44.20;;;;;;10477715;28;20232;-71
2021/01/18 14:22:54;;;;;;;5.23;4.57;;;6.20;44.30;;;;;;10479271;28;20235;-71
2021/01/18 14:27:56;;;;;;;6.43;4.83;;;6.20;44.20;;;;;;10471376;28;20319;-71
2021/01/18 14:32:59;;;;;;;6.20;4.63;;;6.20;44.30;;;;;;10478522;28;20229;-71
2021/01/18 14:38:02;;;;;;;6.50;5.00;;;6.20;44.90;;;;;;10472605;28;20306;-71
2021/01/18 14:43:05;;;;;;;5.33;4.83;;;6.20;44.10;;;;;;10470721;28;20700;-71
2021/01/18 14:48:07;;;;;;;5.67;4.43;;;6.20;44.10;;;;;;10476653;28;20248;-71
2021/01/18 14:53:11;;;;;;;5.80;4.57;;;6.20;44.10;;;;;;10470804;28;20228;-71
2021/01/18 14:58:14;;;;;;;4.63;4.23;;;6.10;44.20;;;;;;10476994;28;20224;-71
2021/01/18 15:03:16;;;;;;;4.83;4.33;;;6.10;44.30;;;;;;10477723;28;20228;-71
2021/01/18 15:08:19;;;;;;;6.17;5.37;;;6.10;44.30;;;;;;10472585;28;20278;-71
2021/01/18 15:13:21;;;;;;;7.10;6.10;;;6.10;44.30;;;;;;10476301;28;20240;-71
2021/01/18 15:18:23;;;;;;;5.97;4.97;;;6.10;44.40;;;;;;10476267;28;20230;-71
2021/01/18 15:23:27;;;;;;;6.97;5.40;;;6.00;44.30;;;;;;10467301;28;20224;-71
2021/01/18 15:28:29;;;;;;;6.33;4.90;;;6.00;44.30;;;;;;10478292;28;20289;-71
2021/01/18 15:33:32;;;;;;;4.60;4.20;;;6.00;44.30;;;;;;10466468;28;20506;-71
2021/01/18 15:38:35;;;;;;;5.83;4.70;;;6.00;44.20;;;;;;10481511;28;20231;-70
2021/01/18 15:43:38;;;;;;;8.97;7.23;;;6.00;44.30;;;;;;10473051;28;20725;-71
2021/01/18 15:48:40;;;;;;;5.97;4.47;;;5.90;44.30;;;;;;10475134;28;20231;-70
2021/01/18 15:53:44;;;;;;;9.13;6.97;;;5.90;44.30;;;;;;10471483;28;20995;-71
2021/01/18 15:59:03;;;;;;;6.73;4.67;;;5.90;44.30;;;;;;10473886;28;20607;-71
2021/01/18 16:04:06;;;;;;;4.73;4.23;;;5.90;44.50;;;;;;10474979;28;20289;-70
2021/01/18 16:09:10;;;;;;;5.67;5.00;;;5.90;44.40;;;;;;10475415;28;20244;-71
2021/01/18 16:14:14;;;;;;;5.93;5.23;;;5.80;44.40;;;;;;10471870;28;20779;-71
2021/01/18 16:19:16;;;;;;;7.27;6.57;;;5.80;44.50;;;;;;10470714;28;20227;-70
2021/01/18 16:24:19;;;;;;;7.07;6.30;;;5.80;44.50;;;;;;10468376;28;20318;-71
2021/01/18 16:29:23;;;;;;;6.20;5.13;;;5.90;44.60;;;;;;10470669;28;20242;-70
2021/01/18 16:34:28;;;;;;;6.10;5.07;;;5.90;44.50;;;;;;10479146;28;20595;-71
2021/01/18 16:39:31;;;;;;;6.63;5.23;;;5.80;44.40;;;;;;10472681;28;20230;-70
2021/01/18 16:44:34;;;;;;;4.93;4.43;;;5.90;44.50;;;;;;10473226;28;20242;-70
2021/01/18 16:49:37;;;;;;;5.33;4.83;;;5.80;44.50;;;;;;10475205;28;20319;-70
2021/01/18 16:54:40;;;;;;;6.37;4.77;;;5.70;44.50;;;;;;10462444;28;20224;-70
2021/01/18 16:59:42;;;;;;;7.90;6.43;;;5.80;44.70;;;;;;10469422;28;20233;-70
2021/01/18 17:04:44;;;;;;;10.17;7.87;;;5.80;44.60;;;;;;10478568;28;20233;-70
2021/01/18 17:09:47;;;;;;;6.53;5.27;;;5.70;44.50;;;;;;10468303;28;20220;-70
2021/01/18 17:14:50;;;;;;;5.80;5.27;;;5.70;44.50;;;;;;10466378;28;20225;-70
2021/01/18 17:19:52;;;;;;;7.30;5.37;;;5.70;44.60;;;;;;10466100;28;20239;-70
2021/01/18 17:24:55;;;;;;;6.33;5.37;;;5.70;44.50;;;;;;10471575;28;20225;-70
2021/01/18 17:29:57;;;;;;;6.73;6.07;;;5.70;44.60;;;;;;10479108;28;20583;-70
2021/01/18 17:35:00;;;;;;;9.10;6.60;;;5.80;44.50;;;;;;10483743;28;20287;-71
2021/01/18 17:40:05;;;;;;;5.87;5.20;;;5.80;44.60;;;;;;10483717;28;20225;-71
2021/01/18 17:45:08;;;;;;;5.80;5.20;;;5.90;44.70;;;;;;10470827;28;20235;-71
2021/01/18 17:50:11;;;;;;;5.80;4.70;;;5.90;44.50;;;;;;10472533;28;20696;-71
2021/01/18 17:55:14;;;;;;;6.27;5.63;;;5.90;44.40;;;;;;10479460;28;20692;-71
2021/01/18 18:00:17;;;;;;;6.27;5.67;;;5.90;44.40;;;;;;10477663;28;20224;-70
2021/01/18 18:05:20;;;;;;;6.30;5.70;;;5.90;44.20;;;;;;10483968;28;20243;-71
2021/01/18 18:10:23;;;;;;;6.60;5.70;;;5.90;44.20;;;;;;10482924;28;20229;-70
2021/01/18 18:15:25;;;;;;;6.20;5.60;;;5.90;44.20;;;;;;10478202;28;20228;-71
2021/01/18 18:20:27;;;;;;;6.40;5.80;;;5.90;44.30;;;;;;10483326;28;20708;-71
2021/01/18 18:25:30;;;;;;;6.10;5.37;;;5.80;44.30;;;;;;10478719;28;20221;-71
2021/01/18 18:30:33;;;;;;;7.20;5.63;;;5.80;44.30;;;;;;10483499;28;20712;-71
2021/01/18 18:35:35;;;;;;;6.63;6.03;;;5.80;44.20;;;;;;10476750;28;20225;-71
2021/01/18 18:40:38;;;;;;;6.50;5.80;;;5.80;44.20;;;;;;10477730;28;20688;-71
2021/01/18 18:45:41;;;;;;;6.07;5.47;;;5.70;44.20;;;;;;10473000;28;20231;-71
2021/01/18 18:50:44;;;;;;;5.23;4.73;;;5.80;44.30;;;;;;10473496;28;20228;-70
2021/01/18 18:55:47;;;;;;;5.73;5.13;;;5.70;44.20;;;;;;10466638;28;20231;-70
2021/01/18 19:00:49;;;;;;;7.97;6.00;;;5.70;44.30;;;;;;10475865;28;20251;-72
2021/01/18 19:05:51;;;;;;;7.03;5.33;;;5.70;44.30;;;;;;10468490;28;20212;-72
2021/01/18 19:10:54;;;;;;;5.97;5.37;;;5.70;44.30;;;;;;10470922;28;20235;-72
2021/01/18 19:15:58;;;;;;;7.93;6.57;;;5.70;44.30;;;;;;10474906;28;20590;-72
2021/01/18 19:21:00;;;;;;;7.07;6.30;;;5.70;44.30;;;;;;10482757;28;20580;-72
2021/01/18 19:26:04;;;;;;;6.90;6.10;;;5.60;44.30;;;;;;10474152;28;20747;-72
2021/01/18 19:31:06;;;;;;;7.93;7.13;;;5.60;44.30;;;;;;10474782;28;20962;-72
2021/01/18 19:36:09;;;;;;;5.90;5.37;;;5.60;44.30;;;;;;10481079;28;20266;-72
2021/01/18 19:41:12;;;;;;;7.40;5.90;;;5.60;44.30;;;;;;10481362;28;20243;-73
2021/01/18 19:46:14;;;;;;;6.10;5.50;;;5.60;44.30;;;;;;10473996;28;20316;-70
2021/01/18 19:51:17;;;;;;;6.07;5.47;;;5.70;44.20;;;;;;10483425;28;20243;-73
2021/01/18 19:56:21;;;;;;;5.90;5.30;;;5.70;44.20;;;;;;10477114;28;20708;-73
2021/01/18 20:01:31;;;;;;;6.33;5.30;;;5.70;44.20;;;;;;10480878;28;20232;-73
2021/01/18 20:06:34;;;;;;;5.80;5.03;;;5.70;44.10;;;;;;10472340;28;20595;-73
2021/01/18 20:11:39;;;;;;;6.47;5.67;;;5.70;44.00;;;;;;10473007;28;20734;-73
2021/01/18 20:16:42;;;;;;;6.20;5.47;;;5.70;44.00;;;;;;10478835;28;20224;-73
2021/01/18 20:21:44;;;;;;;5.77;5.10;;;5.70;44.10;;;;;;10477771;28;20228;-70
2021/01/18 20:26:48;;;;;;;6.30;5.43;;;5.60;44.00;;;;;;10476748;28;20232;-70
2021/01/18 20:31:50;;;;;;;5.50;5.00;;;5.60;43.90;;;;;;10475606;28;20220;-70
2021/01/18 20:36:52;;;;;;;5.60;4.93;;;5.60;44.00;;;;;;10475229;28;20229;-70
2021/01/18 20:41:55;;;;;;;6.63;5.00;;;5.60;44.00;;;;;;10476848;28;20319;-71
2021/01/18 20:46:58;;;;;;;5.63;5.13;;;5.60;43.90;;;;;;10467383;28;20239;-70
2021/01/18 20:52:01;;;;;;;7.30;5.40;;;5.70;43.80;;;;;;10473804;28;20235;-73
2021/01/18 20:57:04;;;;;;;4.60;4.03;;;5.70;43.60;;;;;;10476428;28;20301;-73
2021/01/18 21:02:09;;;;;;;5.73;4.30;;;5.70;43.30;;;;;;10485213;28;20621;-70
2021/01/18 21:07:12;;;;;;;4.97;4.00;;;5.60;43.60;;;;;;10482298;28;20216;-70
2021/01/18 21:12:15;;;;;;;4.33;3.67;;;5.60;43.60;;;;;;10481654;28;20225;-70
2021/01/18 21:17:17;;;;;;;4.20;3.67;;;5.60;43.60;;;;;;10470751;28;20318;-70
2021/01/18 21:22:19;;;;;;;3.97;3.13;;;5.50;43.60;;;;;;10478932;28;20232;-72
2021/01/18 21:27:23;;;;;;;4.43;4.03;;;5.50;43.60;;;;;;10488082;28;20270;-72
2021/01/18 21:32:25;;;;;;;4.00;3.50;;;5.50;43.30;;;;;;10478450;28;20336;-73
2021/01/18 21:37:33;;;;;;;4.33;3.13;;;5.50;43.40;;;;;;10479417;28;20224;-73
2021/01/18 21:42:40;;;;;;;4.00;3.70;;;5.50;43.20;;;;;;10478290;28;20226;-74
2021/01/18 21:47:43;;;;;;;4.13;3.63;;;5.60;43.20;;;;;;10486280;28;20717;-74
2021/01/18 21:52:45;;;;;;;4.60;3.73;;;5.60;43.30;;;;;;10488216;28;20310;-75
2021/01/18 21:57:48;;;;;;;4.20;3.80;;;5.60;43.20;;;;;;10491406;28;20731;-75
2021/01/18 22:02:51;;;;;;;4.70;4.10;;;5.70;43.30;;;;;;10484949;28;20324;-74
2021/01/18 22:07:53;;;;;;;4.20;3.90;;;5.70;43.30;;;;;;10485592;28;20224;-74
2021/01/18 22:12:56;;;;;;;4.37;3.97;;;5.60;43.20;;;;;;10481889;28;20274;-74
2021/01/18 22:17:58;;;;;;;3.90;3.60;;;5.70;43.30;;;;;;10480196;28;20239;-74
2021/01/18 22:23:01;;;;;;;4.90;3.90;;;5.60;43.20;;;;;;10483349;28;20244;-71
2021/01/18 22:28:05;;;;;;;4.37;3.97;;;5.60;43.20;;;;;;10464342;28;20584;-71
2021/01/18 22:33:07;;;;;;;4.47;3.70;;;5.60;43.30;;;;;;10480033;28;20220;-71
2021/01/18 22:38:10;;;;;;;4.37;3.97;;;5.60;43.20;;;;;;10475517;28;20225;-71
2021/01/18 22:43:13;;;;;;;4.37;3.70;;;5.50;43.20;;;;;;10479370;28;20228;-71
2021/01/18 22:48:15;;;;;;;4.77;3.73;;;5.50;43.10;;;;;;10474616;28;20247;-71
2021/01/18 22:53:18;;;;;;;3.87;3.53;;;5.50;43.10;;;;;;10481289;28;20228;-71
2021/01/18 22:58:21;;;;;;;4.20;3.80;;;5.40;43.10;;;;;;10463718;28;20233;-71
2021/01/18 23:03:23;;;;;;;5.07;3.97;;;5.40;43.10;;;;;;10481178;28;20232;-74
2021/01/18 23:08:25;;;;;;;4.47;3.97;;;5.30;43.00;;;;;;10483681;28;20228;-74
2021/01/18 23:13:28;;;;;;;3.60;3.30;;;5.30;43.00;;;;;;10482931;28;20311;-74
2021/01/18 23:18:32;;;;;;;4.37;3.70;;;5.30;43.00;;;;;;10479470;28;20327;-74
2021/01/18 23:23:34;;;;;;;4.10;3.70;;;5.20;42.90;;;;;;10483440;28;20235;-74
2021/01/18 23:28:38;;;;;;;4.27;3.67;;;5.10;42.90;;;;;;10479786;28;20228;-74
2021/01/18 23:33:42;;;;;;;3.83;3.43;;;5.00;42.70;;;;;;10479660;28;20236;-74
2021/01/18 23:38:44;;;;;;;4.23;3.53;;;5.00;42.70;;;;;;10480681;28;20810;-74
2021/01/18 23:43:48;;;;;;;3.80;3.30;;;5.00;42.70;;;;;;10485507;28;20243;-74
2021/01/18 23:48:50;;;;;;;3.27;2.90;;;4.90;42.60;;;;;;10476376;28;20232;-74
2021/01/18 23:53:52;;;;;;;3.90;3.00;;;4.90;42.80;;;;;;10478055;28;20889;-74
2021/01/18 23:58:55;;;;;;;3.33;3.03;;;4.90;42.60;;;;;;10482028;28;20238;-74
